Time;durP1;ratioP1;P1;durP2;ratioP2;P2;SDS_P1;SDS_P2;PMS_P1;PMS_P2;Temp;Humidity;BMP_temperature;BMP_pressure;BME280_temperature;BME280_humidity;BME280_pressure;Samples;Min_cycle;Max_cycle;Signal;HPM_P1;HPM_P2
2022/03/19 00:01:49;;;;;;;87.55;36.15;;;3.50;99.90;;;;;;4994057;28;20081;-88
2022/03/19 00:04:16;;;;;;;84.82;36.15;;;3.50;99.90;;;;;;4994152;28;20782;-88
2022/03/19 00:06:45;;;;;;;99.25;38.75;;;3.60;99.90;;;;;;4961755;28;20081;-88
2022/03/19 00:09:10;;;;;;;84.88;36.95;;;3.50;99.90;;;;;;4977621;28;20041;-88
2022/03/19 00:11:36;;;;;;;95.50;38.72;;;3.50;99.90;;;;;;4960979;28;20030;-87
2022/03/19 00:14:03;;;;;;;89.53;38.50;;;3.60;99.90;;;;;;4960748;28;20030;-88
2022/03/19 00:16:29;;;;;;;90.80;37.35;;;3.60;99.90;;;;;;4961139;28;20038;-88
2022/03/19 00:18:55;;;;;;;96.15;37.28;;;3.60;99.90;;;;;;4960892;28;20714;-87
2022/03/19 00:21:20;;;;;;;95.40;37.65;;;3.50;99.90;;;;;;4977095;28;20085;-88
2022/03/19 00:23:47;;;;;;;94.15;38.60;;;3.60;99.90;;;;;;4977013;28;20072;-88
2022/03/19 00:26:14;;;;;;;90.53;37.22;;;3.50;99.90;;;;;;4993444;28;20026;-89
2022/03/19 00:28:41;;;;;;;94.07;38.67;;;3.60;99.90;;;;;;4960755;28;20673;-88
2022/03/19 00:31:07;;;;;;;110.75;40.55;;;3.50;99.90;;;;;;4976827;28;20030;-89
2022/03/19 00:33:33;;;;;;;89.45;38.20;;;3.50;99.90;;;;;;4961303;28;20128;-87
2022/03/19 00:35:59;;;;;;;96.80;40.13;;;3.50;99.90;;;;;;4961014;28;20129;-88
2022/03/19 00:38:25;;;;;;;93.63;38.85;;;3.50;99.90;;;;;;4993063;28;20031;-88
2022/03/19 00:40:51;;;;;;;92.53;37.88;;;3.50;99.90;;;;;;4976831;28;20030;-88
2022/03/19 00:43:20;;;;;;;91.15;38.45;;;3.50;99.90;;;;;;4960809;28;20046;-87
2022/03/19 00:45:47;;;;;;;94.18;37.70;;;3.50;99.90;;;;;;4960764;28;20119;-88
2022/03/19 00:48:13;;;;;;;87.55;37.08;;;3.50;99.90;;;;;;4960046;28;20030;-87
2022/03/19 00:50:39;;;;;;;92.85;38.38;;;3.50;99.90;;;;;;4993270;28;20494;-88
2022/03/19 00:53:05;;;;;;;101.10;40.20;;;3.50;99.90;;;;;;4976992;28;20022;-88
2022/03/19 00:55:31;;;;;;;98.18;40.25;;;3.50;99.90;;;;;;4993202;28;20074;-88
2022/03/19 00:57:56;;;;;;;92.53;37.78;;;3.50;99.90;;;;;;4992604;28;20038;-88
2022/03/19 01:00:26;;;;;;;94.88;40.63;;;3.50;99.90;;;;;;4992909;28;20022;-88
2022/03/19 01:02:54;;;;;;;89.43;38.30;;;3.50;99.90;;;;;;4959590;28;20037;-88
2022/03/19 01:05:20;;;;;;;91.88;39.00;;;3.50;99.90;;;;;;4960288;28;20088;-87
2022/03/19 01:07:49;;;;;;;97.10;39.83;;;3.50;99.90;;;;;;4960084;28;20035;-88
2022/03/19 01:10:21;;;;;;;90.88;38.28;;;3.40;99.90;;;;;;4992175;28;20034;-88
2022/03/19 01:12:56;;;;;;;93.70;38.88;;;3.40;99.90;;;;;;4976518;28;20034;-87
2022/03/19 01:15:23;;;;;;;88.25;37.40;;;3.40;99.90;;;;;;4960395;28;20049;-88
2022/03/19 01:17:50;;;;;;;99.82;40.63;;;3.40;99.90;;;;;;4959398;28;20577;-87
2022/03/19 01:20:17;;;;;;;88.10;37.25;;;3.30;99.90;;;;;;4993291;28;20026;-87
2022/03/19 01:22:45;;;;;;;91.70;37.30;;;3.30;99.90;;;;;;4959776;28;20810;-88
2022/03/19 01:25:12;;;;;;;95.05;36.63;;;3.30;99.90;;;;;;4975793;28;20034;-87
2022/03/19 01:27:40;;;;;;;94.93;37.50;;;3.30;99.90;;;;;;4993187;28;20478;-88
2022/03/19 01:30:08;;;;;;;89.35;38.55;;;3.20;99.90;;;;;;4976041;28;20034;-88
2022/03/19 01:32:35;;;;;;;89.13;37.20;;;3.20;99.90;;;;;;4959319;28;20040;-88
2022/03/19 01:35:01;;;;;;;95.95;38.13;;;3.20;99.90;;;;;;4977827;28;20038;-87
2022/03/19 01:37:27;;;;;;;102.10;39.15;;;3.20;99.90;;;;;;4959905;28;20038;-88
2022/03/19 01:39:55;;;;;;;93.45;36.55;;;3.20;99.90;;;;;;4991860;28;20056;-87
2022/03/19 01:42:25;;;;;;;97.47;36.50;;;3.20;99.90;;;;;;4991990;28;20426;-87
2022/03/19 01:44:52;;;;;;;92.97;36.00;;;3.10;99.90;;;;;;4959828;28;20124;-88
2022/03/19 01:47:18;;;;;;;91.60;36.30;;;3.10;99.90;;;;;;4959328;28;20042;-87
2022/03/19 01:49:44;;;;;;;97.93;39.50;;;3.20;99.90;;;;;;4992184;28;20031;-87
2022/03/19 01:52:09;;;;;;;91.43;37.03;;;3.10;99.90;;;;;;4993028;28;20478;-87
2022/03/19 01:54:37;;;;;;;95.65;37.88;;;3.10;99.90;;;;;;4991430;28;20555;-88
2022/03/19 01:57:05;;;;;;;93.28;37.33;;;3.10;99.90;;;;;;4959695;28;20042;-87
2022/03/19 01:59:34;;;;;;;95.32;38.25;;;3.00;99.90;;;;;;4962298;28;20042;-87
2022/03/19 02:02:03;;;;;;;107.28;40.30;;;3.00;99.90;;;;;;4991863;28;20101;-87
2022/03/19 02:04:29;;;;;;;95.32;36.97;;;3.00;99.90;;;;;;4959249;28;20481;-88
2022/03/19 02:06:55;;;;;;;92.95;35.90;;;2.90;99.90;;;;;;4991176;28;20073;-87
2022/03/19 02:09:22;;;;;;;95.30;38.17;;;3.00;99.90;;;;;;4959508;28;20038;-87
2022/03/19 02:11:48;;;;;;;91.97;36.78;;;3.00;99.90;;;;;;4961803;28;20040;-88
2022/03/19 02:14:15;;;;;;;98.13;36.40;;;2.90;99.90;;;;;;4995061;28;20026;-87
2022/03/19 02:16:43;;;;;;;91.15;35.78;;;2.90;99.90;;;;;;4963197;28;20031;-87
2022/03/19 02:19:10;;;;;;;94.93;37.35;;;3.00;99.90;;;;;;4963220;28;20489;-87
2022/03/19 02:21:47;;;;;;;93.10;36.95;;;2.90;99.90;;;;;;4995784;28;20023;-88
2022/03/19 02:26:58;;;;;;;97.03;37.45;;;2.90;99.90;;;;;;4979450;28;20033;-88
2022/03/19 02:29:24;;;;;;;91.10;37.10;;;2.90;99.90;;;;;;4962688;28;20129;-88
2022/03/19 02:31:55;;;;;;;86.07;36.42;;;2.90;99.90;;;;;;4994845;28;20104;-87
2022/03/19 02:34:21;;;;;;;95.05;38.45;;;2.90;99.90;;;;;;4979369;28;20126;-88
2022/03/19 02:36:47;;;;;;;106.30;37.00;;;2.90;99.90;;;;;;4963039;28;20031;-87
2022/03/19 02:39:18;;;;;;;90.70;36.67;;;2.90;99.90;;;;;;4979260;28;20102;-87
2022/03/19 02:41:52;;;;;;;86.25;35.33;;;2.90;99.90;;;;;;4979438;28;20025;-88
2022/03/19 02:44:19;;;;;;;99.05;36.95;;;2.90;99.90;;;;;;4978785;28;20096;-88
2022/03/19 02:46:47;;;;;;;96.65;37.30;;;2.90;99.90;;;;;;4962984;28;20022;-88
2022/03/19 02:49:14;;;;;;;91.45;35.97;;;2.90;99.90;;;;;;4979365;28;20026;-88
2022/03/19 02:51:41;;;;;;;85.13;36.28;;;2.90;99.90;;;;;;4995103;28;20121;-88
2022/03/19 02:54:11;;;;;;;88.30;35.28;;;2.90;99.90;;;;;;4995348;28;20455;-88
2022/03/19 02:56:38;;;;;;;92.65;37.55;;;2.80;99.90;;;;;;4962495;28;20026;-88
2022/03/19 02:59:09;;;;;;;97.28;37.38;;;2.80;99.90;;;;;;4995103;28;20042;-86
2022/03/19 03:01:37;;;;;;;100.95;35.72;;;2.80;99.90;;;;;;4962968;28;20519;-88
2022/03/19 03:04:03;;;;;;;95.63;38.03;;;2.80;99.90;;;;;;4962603;28;20871;-88
2022/03/19 03:06:34;;;;;;;102.18;38.47;;;2.80;99.90;;;;;;4962530;28;20038;-88
2022/03/19 03:09:00;;;;;;;101.85;38.15;;;2.80;99.90;;;;;;4962436;28;20497;-87
2022/03/19 03:11:26;;;;;;;93.03;38.50;;;2.80;99.90;;;;;;4962044;28;20152;-87
2022/03/19 03:13:51;;;;;;;103.60;37.92;;;2.80;99.90;;;;;;4995988;28;20470;-88
2022/03/19 03:16:17;;;;;;;92.47;40.28;;;2.80;99.90;;;;;;4978737;28;20034;-88
2022/03/19 03:18:43;;;;;;;103.93;38.72;;;2.80;99.90;;;;;;4961966;28;20528;-88
2022/03/19 03:21:09;;;;;;;87.03;36.30;;;2.90;99.90;;;;;;4994956;28;20018;-87
2022/03/19 03:23:35;;;;;;;96.60;37.22;;;2.90;99.90;;;;;;4962482;28;20034;-88
2022/03/19 03:26:00;;;;;;;87.88;38.53;;;2.80;99.90;;;;;;4961702;28;20439;-87
2022/03/19 03:28:27;;;;;;;92.00;37.78;;;2.80;99.90;;;;;;4962031;28;20085;-87
2022/03/19 03:30:53;;;;;;;92.72;38.50;;;2.80;99.90;;;;;;4994592;28;20034;-88
2022/03/19 03:33:19;;;;;;;92.30;38.45;;;2.80;99.90;;;;;;4962307;28;20070;-89
2022/03/19 03:35:45;;;;;;;99.68;38.42;;;2.80;99.90;;;;;;4978739;28;20158;-87
2022/03/19 03:38:11;;;;;;;95.35;37.88;;;2.80;99.90;;;;;;4962021;28;20038;-87
2022/03/19 03:40:37;;;;;;;112.15;40.88;;;2.80;99.90;;;;;;4962184;28;20022;-88
2022/03/19 03:43:03;;;;;;;90.43;36.78;;;2.80;99.90;;;;;;4962459;28;20065;-88
2022/03/19 03:45:30;;;;;;;100.55;37.70;;;2.80;99.90;;;;;;4994275;28;20469;-88
2022/03/19 03:47:56;;;;;;;91.25;37.90;;;2.70;99.90;;;;;;4978015;28;20034;-88
2022/03/19 03:50:22;;;;;;;90.75;36.05;;;2.70;99.90;;;;;;4977803;28;20041;-88
2022/03/19 03:52:48;;;;;;;95.55;38.17;;;2.70;99.90;;;;;;4961025;28;20034;-88
2022/03/19 03:55:14;;;;;;;94.35;36.95;;;2.60;99.90;;;;;;4961406;28;20026;-88
2022/03/19 03:57:40;;;;;;;93.03;36.03;;;2.60;99.90;;;;;;4993546;28;20030;-88
2022/03/19 04:00:10;;;;;;;102.30;39.75;;;2.50;99.90;;;;;;4993413;28;20066;-88
2022/03/19 04:02:39;;;;;;;95.20;37.63;;;2.60;99.90;;;;;;4977806;28;20601;-88
2022/03/19 04:05:07;;;;;;;100.90;37.35;;;2.60;99.90;;;;;;4977276;28;20145;-88
2022/03/19 04:07:33;;;;;;;87.22;34.80;;;2.60;99.90;;;;;;4960880;28;20794;-88
2022/03/19 04:09:58;;;;;;;97.35;36.50;;;2.50;99.90;;;;;;4961183;28;20045;-89
2022/03/19 04:12:44;;;;;;;97.20;35.75;;;2.60;99.90;;;;;;4961571;28;20034;-88
2022/03/19 04:15:11;;;;;;;80.30;34.25;;;2.60;99.90;;;;;;4961239;28;20034;-88
2022/03/19 04:17:37;;;;;;;75.65;32.40;;;2.50;99.90;;;;;;4960755;28;20034;-87
2022/03/19 04:20:05;;;;;;;87.68;34.03;;;2.60;99.90;;;;;;4960600;28;20054;-87
2022/03/19 04:22:35;;;;;;;90.60;34.97;;;2.50;99.90;;;;;;4993234;28;20393;-87
2022/03/19 04:25:01;;;;;;;89.30;34.95;;;2.50;99.90;;;;;;4960677;28;20026;-88
2022/03/19 04:27:26;;;;;;;84.40;32.92;;;2.50;99.90;;;;;;4960508;28;20033;-88
2022/03/19 04:29:52;;;;;;;94.78;33.17;;;2.50;99.90;;;;;;4960506;28;20046;-88
2022/03/19 04:32:18;;;;;;;97.40;33.45;;;2.40;99.90;;;;;;4960508;28;20085;-88
2022/03/19 04:34:43;;;;;;;72.75;30.15;;;2.40;99.90;;;;;;4992622;28;20034;-87
2022/03/19 04:37:09;;;;;;;83.60;35.20;;;2.40;99.90;;;;;;4991807;28;20598;-87
2022/03/19 04:39:35;;;;;;;81.32;32.58;;;2.40;99.90;;;;;;4960649;28;20026;-88
2022/03/19 04:42:01;;;;;;;91.30;32.58;;;2.40;99.90;;;;;;4992523;28;20030;-88
2022/03/19 04:44:27;;;;;;;75.25;30.63;;;2.50;99.90;;;;;;4976458;28;20470;-88
2022/03/19 04:46:53;;;;;;;71.47;29.60;;;2.50;99.90;;;;;;4992493;28;20113;-88
2022/03/19 04:49:18;;;;;;;70.07;28.08;;;2.50;99.90;;;;;;4992582;28;20030;-88
2022/03/19 04:51:44;;;;;;;78.50;29.58;;;2.40;99.90;;;;;;4960748;28;20022;-88
2022/03/19 04:54:10;;;;;;;75.15;30.40;;;2.40;99.90;;;;;;4960438;28;20034;-88
2022/03/19 04:56:36;;;;;;;73.10;31.63;;;2.30;99.90;;;;;;4960115;28;20027;-87
2022/03/19 04:59:03;;;;;;;78.47;30.88;;;2.30;99.90;;;;;;4960213;28;20045;-87
2022/03/19 05:01:31;;;;;;;70.18;28.75;;;2.30;99.90;;;;;;4960372;28;20030;-88
2022/03/19 05:03:57;;;;;;;77.82;30.48;;;2.20;99.90;;;;;;4960113;28;20084;-88
2022/03/19 05:06:23;;;;;;;81.95;32.88;;;2.20;99.90;;;;;;4976156;28;20034;-88
2022/03/19 05:11:42;;;;;;;85.32;31.48;;;2.20;99.90;;;;;;4975649;28;20049;-88
2022/03/19 05:14:10;;;;;;;83.47;32.03;;;2.10;99.90;;;;;;4992036;28;20030;-88
2022/03/19 05:16:36;;;;;;;72.03;29.00;;;2.20;99.90;;;;;;4992160;28;20034;-88
2022/03/19 05:19:02;;;;;;;66.32;27.42;;;2.20;99.90;;;;;;4959731;28;20130;-88
2022/03/19 05:21:28;;;;;;;73.53;28.10;;;2.10;99.90;;;;;;4959993;28;20601;-88
2022/03/19 05:23:55;;;;;;;67.85;28.33;;;2.10;99.90;;;;;;4960146;28;20041;-88
2022/03/19 05:26:21;;;;;;;70.60;25.92;;;2.00;99.90;;;;;;4976018;28;20498;-87
2022/03/19 05:28:47;;;;;;;64.50;25.48;;;2.10;99.90;;;;;;4959330;28;20113;-87
2022/03/19 05:31:12;;;;;;;78.53;27.80;;;2.00;99.90;;;;;;4959380;28;20046;-85
2022/03/19 05:36:27;;;;;;;83.05;27.58;;;2.00;99.90;;;;;;4975417;28;20034;-85
2022/03/19 05:38:53;;;;;;;70.93;28.63;;;2.00;99.90;;;;;;4958905;28;20096;-85
2022/03/19 05:41:19;;;;;;;84.90;29.27;;;2.00;99.90;;;;;;4959561;28;20057;-84
2022/03/19 05:43:46;;;;;;;84.20;29.38;;;2.00;99.90;;;;;;4959325;28;20031;-83
2022/03/19 05:46:11;;;;;;;75.80;27.75;;;1.90;99.90;;;;;;4991981;28;20125;-85
2022/03/19 05:48:37;;;;;;;68.82;28.77;;;1.90;99.90;;;;;;4961748;28;20449;-84
2022/03/19 05:51:04;;;;;;;65.35;25.92;;;2.00;99.90;;;;;;4963209;28;20116;-84
2022/03/19 05:53:30;;;;;;;74.75;30.10;;;2.10;99.90;;;;;;4963588;28;20505;-85
2022/03/19 05:55:55;;;;;;;76.63;29.17;;;2.10;99.90;;;;;;4979413;28;20041;-85
2022/03/19 05:58:21;;;;;;;76.30;29.13;;;2.10;99.90;;;;;;4995092;28;20061;-85
2022/03/19 06:00:47;;;;;;;70.10;28.38;;;2.10;99.90;;;;;;4979400;28;20089;-86
2022/03/19 06:03:14;;;;;;;64.93;27.20;;;2.10;99.90;;;;;;4995607;28;20027;-85
2022/03/19 06:05:40;;;;;;;63.17;27.20;;;2.10;99.90;;;;;;4963530;28;20029;-85
2022/03/19 06:08:06;;;;;;;77.57;27.23;;;2.10;99.90;;;;;;4963506;28;20034;-84
2022/03/19 06:10:35;;;;;;;66.72;27.20;;;2.10;99.90;;;;;;4979418;28;20038;-86
2022/03/19 06:13:02;;;;;;;64.65;26.35;;;2.20;99.90;;;;;;4963332;28;20091;-83
2022/03/19 06:15:30;;;;;;;83.38;27.67;;;2.20;99.90;;;;;;4979027;28;20072;-84
2022/03/19 06:17:56;;;;;;;72.90;30.05;;;2.20;99.90;;;;;;4962380;28;20449;-85
2022/03/19 06:20:23;;;;;;;79.93;28.50;;;2.30;99.90;;;;;;4995022;28;20034;-85
2022/03/19 06:22:49;;;;;;;71.55;30.92;;;2.30;99.90;;;;;;4963214;28;20761;-84
2022/03/19 06:25:15;;;;;;;75.53;31.58;;;2.40;99.90;;;;;;4963400;28;20129;-85
2022/03/19 06:27:41;;;;;;;81.63;32.33;;;2.50;99.90;;;;;;4994879;28;20490;-84
2022/03/19 06:30:08;;;;;;;83.20;34.60;;;2.50;99.90;;;;;;4995313;28;20038;-84
2022/03/19 06:32:37;;;;;;;89.03;33.63;;;2.60;99.90;;;;;;4995185;28;20038;-83
2022/03/19 06:35:03;;;;;;;88.47;35.08;;;2.70;99.90;;;;;;4963041;28;20119;-84
2022/03/19 06:37:31;;;;;;;82.85;33.47;;;2.70;99.90;;;;;;4994784;28;20543;-85
2022/03/19 06:40:06;;;;;;;79.22;33.08;;;2.80;99.90;;;;;;4978741;28;20125;-85
2022/03/19 06:42:33;;;;;;;82.68;34.55;;;2.90;99.90;;;;;;4962787;28;20094;-84
2022/03/19 06:44:59;;;;;;;86.93;36.20;;;2.90;99.90;;;;;;4963077;28;20026;-84
2022/03/19 06:47:24;;;;;;;78.40;33.40;;;3.00;99.90;;;;;;4978314;28;20030;-85
2022/03/19 06:49:51;;;;;;;82.30;33.45;;;3.10;99.90;;;;;;4978860;28;20041;-85
2022/03/19 06:52:16;;;;;;;76.20;33.47;;;3.20;99.90;;;;;;4995767;28;20378;-85
2022/03/19 06:54:52;;;;;;;81.63;34.83;;;3.30;99.90;;;;;;4962266;28;20096;-85
2022/03/19 06:57:17;;;;;;;77.45;35.22;;;3.40;99.90;;;;;;4994428;28;20132;-85
2022/03/19 06:59:43;;;;;;;82.47;33.20;;;3.40;99.90;;;;;;4995003;28;20474;-85
2022/03/19 07:02:09;;;;;;;78.25;31.30;;;3.40;99.90;;;;;;4994152;28;20029;-85
2022/03/19 07:04:34;;;;;;;75.90;30.58;;;3.50;99.90;;;;;;4994746;28;20057;-85
2022/03/19 07:07:00;;;;;;;70.50;29.48;;;3.60;99.90;;;;;;4962021;28;20545;-84
2022/03/19 07:09:26;;;;;;;71.90;29.48;;;3.70;99.90;;;;;;4962024;28;20114;-84
2022/03/19 07:11:52;;;;;;;69.60;29.08;;;3.70;99.90;;;;;;4978641;28;20429;-85
2022/03/19 07:14:18;;;;;;;75.85;30.58;;;3.80;99.90;;;;;;4962587;28;20113;-85
2022/03/19 07:16:44;;;;;;;73.00;30.60;;;3.80;99.90;;;;;;4961833;28;20088;-84
2022/03/19 07:19:10;;;;;;;72.93;32.65;;;3.90;99.90;;;;;;4962042;28;20038;-84
2022/03/19 07:21:36;;;;;;;81.20;35.63;;;3.90;99.90;;;;;;4994141;28;20132;-85
2022/03/19 07:24:01;;;;;;;71.78;31.13;;;4.00;99.90;;;;;;4978129;28;20034;-85
2022/03/19 07:26:27;;;;;;;72.97;30.75;;;4.00;99.90;;;;;;4962055;28;20030;-85
2022/03/19 07:28:53;;;;;;;71.38;28.90;;;4.10;99.90;;;;;;4977898;28;20096;-84
2022/03/19 07:31:19;;;;;;;67.07;26.92;;;4.20;99.90;;;;;;4995728;28;20042;-84
2022/03/19 07:33:47;;;;;;;70.72;30.10;;;4.20;99.90;;;;;;4978413;28;20726;-84
2022/03/19 07:36:13;;;;;;;68.63;27.63;;;4.20;99.90;;;;;;4961545;28;20045;-83
2022/03/19 07:38:39;;;;;;;69.13;28.75;;;4.30;99.90;;;;;;4961310;28;20393;-84
2022/03/19 07:43:50;;;;;;;65.03;29.33;;;4.40;99.90;;;;;;4977928;28;20081;-84
2022/03/19 07:46:16;;;;;;;72.20;30.02;;;4.40;99.90;;;;;;4961558;28;20026;-84
2022/03/19 07:48:42;;;;;;;73.55;32.30;;;4.40;99.90;;;;;;4961319;28;20038;-85
2022/03/19 07:51:09;;;;;;;69.63;32.20;;;4.50;99.90;;;;;;4961407;28;20052;-85
2022/03/19 07:53:37;;;;;;;70.97;29.48;;;4.60;99.90;;;;;;4993510;28;20563;-85
2022/03/19 07:56:03;;;;;;;67.57;31.10;;;4.60;99.90;;;;;;4993769;28;20042;-85
2022/03/19 07:58:29;;;;;;;74.63;30.60;;;4.80;99.90;;;;;;4993534;28;20141;-84
2022/03/19 08:00:56;;;;;;;76.68;33.00;;;4.90;99.90;;;;;;4963603;28;20117;-85
2022/03/19 08:03:22;;;;;;;64.40;29.23;;;4.90;99.90;;;;;;4993549;28;20038;-85
2022/03/19 08:05:47;;;;;;;73.43;30.10;;;5.00;99.90;;;;;;4993293;28;20045;-85
2022/03/19 08:08:14;;;;;;;58.33;27.73;;;5.00;99.90;;;;;;4960852;28;20062;-85
2022/03/19 08:10:40;;;;;;;65.57;29.08;;;5.10;99.90;;;;;;4976891;28;20046;-85
2022/03/19 08:13:08;;;;;;;70.72;31.10;;;5.20;99.90;;;;;;4993398;28;20061;-84
2022/03/19 08:15:37;;;;;;;62.30;30.13;;;5.30;99.90;;;;;;4961310;28;20081;-85
2022/03/19 08:18:03;;;;;;;62.65;29.30;;;5.40;99.90;;;;;;4962746;28;20141;-84
2022/03/19 08:20:28;;;;;;;66.07;30.30;;;5.40;99.90;;;;;;4976502;28;20493;-84
2022/03/19 08:22:55;;;;;;;79.78;29.63;;;5.50;99.90;;;;;;4992808;28;20116;-84
2022/03/19 08:25:21;;;;;;;66.40;29.73;;;5.60;99.90;;;;;;4993278;28;20668;-85
2022/03/19 08:27:47;;;;;;;64.63;30.00;;;5.60;99.90;;;;;;4960164;28;20042;-85
2022/03/19 08:30:13;;;;;;;64.85;28.52;;;5.70;99.90;;;;;;4960919;28;20093;-84
2022/03/19 08:32:39;;;;;;;72.82;31.80;;;5.70;99.90;;;;;;4961689;28;20124;-84
2022/03/19 08:35:05;;;;;;;72.63;33.45;;;5.70;99.90;;;;;;4993492;28;20118;-85
2022/03/19 08:37:32;;;;;;;85.65;37.38;;;5.70;99.90;;;;;;4991739;28;20030;-84
2022/03/19 08:40:17;;;;;;;59.10;29.92;;;5.80;99.90;;;;;;4961426;28;20038;-83
2022/03/19 08:42:44;;;;;;;63.15;29.00;;;5.90;99.90;;;;;;4960945;28;20058;-85
2022/03/19 08:45:10;;;;;;;72.50;30.52;;;6.00;99.90;;;;;;4960578;28;20068;-84
2022/03/19 08:47:36;;;;;;;65.75;29.73;;;6.10;99.90;;;;;;4960055;28;20058;-84
2022/03/19 08:50:03;;;;;;;61.05;26.52;;;6.40;99.90;;;;;;4992611;28;20058;-85
2022/03/19 08:52:29;;;;;;;55.63;27.98;;;6.80;99.90;;;;;;4961009;28;20065;-84
2022/03/19 08:54:55;;;;;;;50.13;25.40;;;7.30;99.90;;;;;;4960565;28;20070;-83
2022/03/19 08:57:21;;;;;;;49.03;23.10;;;8.00;99.90;;;;;;4960643;28;20030;-85
2022/03/19 08:59:47;;;;;;;42.42;20.95;;;8.60;99.90;;;;;;4960649;28;20036;-85
2022/03/19 09:02:12;;;;;;;39.80;19.38;;;9.10;99.90;;;;;;4960402;28;20038;-84
2022/03/19 09:04:38;;;;;;;36.25;17.48;;;9.60;99.90;;;;;;4992549;28;20030;-85
2022/03/19 09:07:04;;;;;;;39.60;18.15;;;10.00;99.90;;;;;;4959760;28;20096;-85
2022/03/19 09:09:29;;;;;;;25.92;12.45;;;10.30;99.90;;;;;;4960119;28;20410;-86
2022/03/19 09:11:55;;;;;;;29.30;14.27;;;10.40;99.90;;;;;;4959935;28;20041;-85
2022/03/19 09:14:22;;;;;;;23.65;11.77;;;10.30;99.90;;;;;;4992372;28;20030;-85
2022/03/19 09:16:47;;;;;;;20.42;10.18;;;10.20;99.90;;;;;;4960018;28;20104;-85
2022/03/19 09:19:13;;;;;;;26.02;11.65;;;9.80;99.90;;;;;;4960073;28;20085;-84
2022/03/19 09:21:40;;;;;;;27.88;11.48;;;9.50;99.90;;;;;;4961716;28;20719;-84
2022/03/19 09:24:06;;;;;;;21.20;9.85;;;9.30;99.90;;;;;;4960812;28;20038;-85
2022/03/19 09:26:59;;;;;;;21.63;10.30;;;9.50;99.90;;;;;;4960081;28;20482;-85
2022/03/19 09:29:25;;;;;;;20.52;10.25;;;9.50;99.90;;;;;;4976445;28;20087;-84
2022/03/19 09:31:51;;;;;;;21.20;9.68;;;9.50;99.90;;;;;;4992462;28;20064;-84
2022/03/19 09:34:17;;;;;;;16.70;8.30;;;9.40;99.90;;;;;;4992192;28;20065;-85
2022/03/19 09:36:46;;;;;;;15.55;7.95;;;9.40;99.90;;;;;;4960166;28;20038;-85
2022/03/19 09:39:16;;;;;;;19.45;9.20;;;9.40;99.90;;;;;;4975619;28;20037;-84
2022/03/19 09:41:42;;;;;;;19.65;8.90;;;9.70;99.90;;;;;;4960323;28;20034;-85
2022/03/19 09:44:12;;;;;;;16.80;8.32;;;9.70;99.90;;;;;;4993758;28;20740;-85
2022/03/19 09:46:38;;;;;;;18.67;8.95;;;10.00;99.90;;;;;;4959947;28;20027;-84
2022/03/19 09:49:04;;;;;;;23.52;9.25;;;10.40;99.90;;;;;;4975708;28;20042;-85
2022/03/19 09:51:34;;;;;;;19.50;8.18;;;10.80;99.90;;;;;;4960258;28;20066;-84
2022/03/19 09:54:00;;;;;;;20.13;9.30;;;10.70;99.90;;;;;;4960012;28;20033;-85
2022/03/19 09:56:25;;;;;;;19.95;9.43;;;10.90;99.90;;;;;;4976269;28;20120;-86
2022/03/19 09:58:52;;;;;;;22.42;9.98;;;11.50;99.90;;;;;;4976221;28;20026;-86
2022/03/19 10:01:18;;;;;;;22.77;10.05;;;11.50;99.90;;;;;;4960366;28;20031;-85
2022/03/19 10:03:45;;;;;;;17.85;10.93;;;11.60;99.90;;;;;;4960130;28;20026;-85
2022/03/19 10:09:01;;;;;;;22.27;10.93;;;11.20;99.90;;;;;;4993252;28;20050;-86
2022/03/19 10:11:35;;;;;;;21.45;10.15;;;11.00;99.90;;;;;;4976086;28;20512;-85
2022/03/19 10:14:06;;;;;;;19.50;10.13;;;10.90;99.90;;;;;;4976444;28;20057;-86
2022/03/19 10:16:34;;;;;;;20.83;9.15;;;10.90;99.90;;;;;;4992368;28;20035;-85
2022/03/19 10:19:03;;;;;;;20.63;8.55;;;11.20;99.90;;;;;;4959735;28;20034;-86
2022/03/19 10:21:34;;;;;;;19.10;9.23;;;11.70;99.90;;;;;;4959748;28;20034;-85
2022/03/19 10:24:01;;;;;;;24.73;10.83;;;12.50;99.80;;;;;;4959274;28;20034;-86
2022/03/19 10:26:34;;;;;;;18.45;10.27;;;12.80;98.60;;;;;;4959637;28;20324;-84
2022/03/19 10:29:02;;;;;;;20.88;10.98;;;12.90;97.50;;;;;;4961665;28;20057;-85
2022/03/19 10:31:29;;;;;;;26.85;12.35;;;12.50;98.30;;;;;;4960325;28;20504;-85
2022/03/19 10:33:55;;;;;;;28.42;10.52;;;12.20;98.50;;;;;;4960424;28;20034;-86
2022/03/19 10:36:29;;;;;;;23.15;9.68;;;12.20;99.60;;;;;;4994804;28;20489;-85
2022/03/19 10:38:55;;;;;;;17.60;9.18;;;12.30;99.20;;;;;;4962719;28;20100;-86
2022/03/19 10:41:21;;;;;;;17.33;10.45;;;12.30;97.80;;;;;;4962629;28;20078;-85
2022/03/19 10:43:53;;;;;;;32.15;15.50;;;12.10;98.00;;;;;;4962779;28;20026;-85
2022/03/19 10:46:19;;;;;;;19.42;8.88;;;11.90;98.10;;;;;;4962957;28;20062;-85
2022/03/19 10:48:53;;;;;;;18.38;9.35;;;11.70;97.40;;;;;;4978982;28;20030;-85
2022/03/19 10:51:20;;;;;;;15.93;8.38;;;11.10;98.30;;;;;;4966258;28;20550;-86
2022/03/19 10:53:48;;;;;;;22.80;8.82;;;11.40;97.80;;;;;;4995240;28;20038;-85
2022/03/19 10:56:15;;;;;;;13.57;8.20;;;11.60;97.40;;;;;;4978808;28;20174;-86
2022/03/19 10:58:41;;;;;;;17.65;8.40;;;11.60;95.30;;;;;;4962350;28;20440;-85
2022/03/19 11:01:08;;;;;;;18.77;8.38;;;11.50;93.50;;;;;;4962127;28;20477;-84
2022/03/19 11:03:37;;;;;;;13.10;7.53;;;10.80;95.30;;;;;;4962188;28;20049;-84
2022/03/19 11:06:07;;;;;;;12.55;7.03;;;10.40;95.80;;;;;;4964465;28;20540;-84
2022/03/19 11:08:44;;;;;;;9.98;5.93;;;9.60;94.80;;;;;;4994741;28;20034;-85
2022/03/19 11:11:16;;;;;;;13.52;6.63;;;9.40;94.10;;;;;;4978752;28;20030;-84
2022/03/19 11:13:46;;;;;;;15.65;6.20;;;9.80;95.00;;;;;;4962828;28;20363;-85
2022/03/19 11:16:12;;;;;;;16.77;6.95;;;10.60;93.80;;;;;;4962659;28;20089;-84
2022/03/19 11:18:40;;;;;;;7.40;4.10;;;11.20;93.10;;;;;;4962139;28;20117;-85
2022/03/19 11:21:09;;;;;;;8.50;3.97;;;11.40;83.50;;;;;;4962492;28;20051;-85
2022/03/19 11:24:04;;;;;;;11.10;4.72;;;11.50;81.30;;;;;;4962291;28;20081;-85
2022/03/19 11:26:31;;;;;;;9.00;5.20;;;11.90;82.70;;;;;;4962353;28;20097;-85
2022/03/19 11:28:57;;;;;;;11.13;4.18;;;11.90;78.20;;;;;;4994200;28;20133;-85
2022/03/19 11:31:28;;;;;;;12.52;5.40;;;11.90;74.60;;;;;;4994369;28;20508;-85
2022/03/19 11:33:59;;;;;;;10.43;5.50;;;12.30;80.20;;;;;;4978237;28;20394;-84
2022/03/19 11:36:24;;;;;;;16.45;5.28;;;12.60;78.00;;;;;;4962214;28;20038;-86
2022/03/19 11:38:52;;;;;;;21.60;7.60;;;13.00;76.30;;;;;;4961780;28;20030;-85
2022/03/19 11:41:25;;;;;;;12.07;5.82;;;13.10;77.00;;;;;;4994206;28;20401;-85
2022/03/19 11:44:11;;;;;;;9.35;5.28;;;13.00;76.00;;;;;;4961807;28;20782;-86
2022/03/19 11:46:58;;;;;;;13.45;6.20;;;12.10;76.70;;;;;;4960293;28;20078;-86
2022/03/19 11:49:50;;;;;;;13.30;5.07;;;11.90;80.00;;;;;;4961381;28;20030;-85
2022/03/19 11:52:25;;;;;;;17.77;6.18;;;12.40;75.70;;;;;;4961191;28;20044;-85
2022/03/19 11:55:00;;;;;;;9.00;4.93;;;12.40;72.50;;;;;;4961272;28;20038;-86
2022/03/19 11:57:28;;;;;;;8.20;4.35;;;12.30;73.20;;;;;;4961758;28;20039;-85
2022/03/19 12:00:00;;;;;;;11.50;4.93;;;12.50;74.20;;;;;;4962554;28;20184;-85
2022/03/19 12:02:27;;;;;;;8.90;4.53;;;12.70;70.90;;;;;;4979480;28;20042;-83
2022/03/19 12:04:57;;;;;;;9.52;6.05;;;13.40;74.00;;;;;;4961867;28;20464;-83
2022/03/19 12:07:43;;;;;;;9.45;5.60;;;13.50;70.70;;;;;;4960915;28;20133;-82
2022/03/19 12:10:12;;;;;;;9.13;4.63;;;13.50;72.30;;;;;;4977267;28;20061;-85
2022/03/19 12:12:40;;;;;;;7.78;4.13;;;13.90;70.00;;;;;;4961311;28;20505;-85
2022/03/19 12:15:33;;;;;;;7.03;3.92;;;13.50;67.50;;;;;;4993203;28;20664;-85
2022/03/19 12:18:22;;;;;;;7.95;3.67;;;13.30;67.00;;;;;;4962658;28;20034;-85
2022/03/19 12:20:50;;;;;;;7.35;4.20;;;13.60;67.00;;;;;;4960827;28;20113;-85
2022/03/19 12:23:16;;;;;;;10.90;4.88;;;13.70;65.20;;;;;;4960411;28;20116;-85
2022/03/19 12:26:04;;;;;;;8.52;4.20;;;13.50;66.50;;;;;;4960314;28;20481;-85
2022/03/19 12:28:30;;;;;;;12.55;4.63;;;13.20;66.00;;;;;;4975966;28;20042;-84
2022/03/19 12:31:07;;;;;;;8.63;4.60;;;12.70;67.60;;;;;;4976394;28;20042;-85
2022/03/19 12:33:33;;;;;;;10.23;5.32;;;12.60;69.30;;;;;;4995163;28;20038;-84
2022/03/19 12:36:20;;;;;;;17.05;4.45;;;11.80;65.50;;;;;;4992442;28;20397;-85
2022/03/19 12:38:50;;;;;;;11.45;4.35;;;11.40;65.30;;;;;;4960167;28;20050;-85
2022/03/19 12:41:27;;;;;;;10.05;3.33;;;11.50;65.70;;;;;;4960585;28;20022;-85
2022/03/19 12:44:05;;;;;;;5.35;3.10;;;11.70;63.60;;;;;;4962252;28;20061;-85
2022/03/19 12:46:34;;;;;;;5.15;3.08;;;11.80;63.30;;;;;;4957604;28;20053;-85
2022/03/19 12:49:08;;;;;;;5.47;3.17;;;12.00;62.10;;;;;;4976139;28;20034;-85
2022/03/19 12:51:37;;;;;;;6.95;2.40;;;12.10;59.20;;;;;;4962363;28;20038;-86
2022/03/19 12:54:30;;;;;;;5.30;2.33;;;12.10;59.10;;;;;;4960157;28;20385;-85